Eira — OJJP — position and weather

sailwx.info

Track history (hours):
 
Tides and Currents Weather Stations Pressure Air Temp Water Temp Dewpoint Dewpoint Depression Visibility Wind Speed Wind Dir Waves Ship Positions

Eira

Last reported at 2015-Aug-04 00:33 UTC. Time now 2015-Aug-04 01:25 UTC.
Position N 58°40' E 017°07'.

Length 157 m; draft 9.2 m.

Type: Cargo ship. MMSI: 230935000.

Date/timePositionNaut miles runAvg speedWind from/ knotsBaromVisibWave heightAir tempDewpointWater temp
2015-Aug-04 00:33N 58°40' E 017°07'0 0.0
2015-Aug-03 23:33N 58°40' E 017°07'0 0.0
2015-Aug-03 22:33N 58°40' E 017°07'0 0.0
2015-Aug-03 21:33N 58°40' E 017°07'0 0.0
2015-Aug-03 20:33N 58°40' E 017°07'0 0.0
2015-Aug-03 19:30N 58°40' E 017°07'0 0.0
2015-Aug-03 18:27N 58°40' E 017°07'0 0.0
2015-Aug-03 17:21N 58°40' E 017°07'0 0.0
2015-Aug-03 16:33N 58°40' E 017°07'0 0.0
2015-Aug-03 15:33N 58°40' E 017°07'0 0.0
2015-Aug-03 14:33N 58°40' E 017°07'0 0.0
2015-Aug-03 13:32N 58°40' E 017°07'4 4.4
2015-Aug-03 12:33N 58°37' E 017°13'1010.2
2015-Aug-03 11:33N 58°38' E 017°33'14 9.5
2015-Aug-03 10:04N 58°38' E 018°00'9 9.8
2015-Aug-03 09:05N 58°44' E 018°14'  
2015-Jul-28 11:32N 59°53' E 019°36'139 9.9
2015-Jul-27 21:33N 57°42' E 018°06'1110.7
2015-Jul-27 20:33N 57°33' E 017°56'1210.4
2015-Jul-27 19:25N 57°23' E 017°46'910.5
2015-Jul-27 18:31N 57°14' E 017°39'1010.5
2015-Jul-27 17:33N 57°05' E 017°32'1110.6
2015-Jul-27 16:33N 56°55' E 017°25'1111.1
2015-Jul-27 15:33N 56°44' E 017°17'7710.7
2015-Jul-27 08:20N 55°45' E 015°48'911.2
2015-Jul-27 07:33N 55°41' E 015°34'1110.6
2015-Jul-27 06:33N 55°36' E 015°18'1111.2
2015-Jul-27 05:34N 55°30' E 015°01'1111.4
2015-Jul-27 04:33N 55°24' E 014°44'1111.3
2015-Jul-27 03:33N 55°16' E 014°30'1111.3
2015-Jul-27 02:34N 55°08' E 014°17'1111.1
2015-Jul-27 01:33N 55°01' E 014°02'1111.3
2015-Jul-27 00:33N 54°57' E 013°43'5711.2
2015-Jul-26 19:24N 54°30' E 012°16'910.7
2015-Jul-26 18:33N 54°25' E 012°03'1212.0
2015-Jul-26 17:33N 54°26' E 011°42'1212.5
2015-Jul-26 16:33N 54°31' E 011°23'1312.7
2015-Jul-26 15:33N 54°37' E 011°03'1311.6
2015-Jul-26 14:27N 54°48' E 010°52'1112.3
2015-Jul-26 13:33N 54°58' E 010°59'1212.0
2015-Jul-26 12:33N 55°10' E 011°03'1211.7
2015-Jul-26 11:33N 55°22' E 011°02'8310.0
2015-Jul-26 03:15N 56°41' E 011°47'710.7
2015-Jul-26 02:34N 56°48' E 011°49'1212.0
2015-Jul-26 01:33N 56°60' E 011°41'1211.8
2015-Jul-26 00:33N 57°11' E 011°34'1211.7
2015-Jul-25 23:33N 57°22' E 011°27'1111.3
2015-Jul-25 22:33N 57°32' E 011°16'1111.0
2015-Jul-25 21:33N 57°39' E 011°01'1110.6
2015-Jul-25 20:32N 57°46' E 010°46'9 9.4
2015-Jul-25 19:33N 57°46' E 010°28'147 9.8
2015-Jul-25 04:33N 58°03' E 005°53'  
Track history (hours):
 
Tides and Currents Weather Stations Pressure Air Temp Water Temp Dewpoint Dewpoint Depression Visibility Wind Speed Wind Dir Waves Ship Positions

Eira

Last reported at 2015-Aug-04 00:33 UTC. Time now 2015-Aug-04 01:25 UTC.
Position N 58°40' E 017°07'.

Length 157 m; draft 9.2 m.

Type: Cargo ship. MMSI: 230935000.

Date/timePositionNaut miles runAvg speedWind from/ knotsBaromVisibWave heightAir tempDewpointWater temp
2015-Aug-04 00:33N 58°40' E 017°07'0 0.0
2015-Aug-03 23:33N 58°40' E 017°07'0 0.0
2015-Aug-03 22:33N 58°40' E 017°07'0 0.0
2015-Aug-03 21:33N 58°40' E 017°07'0 0.0
2015-Aug-03 20:33N 58°40' E 017°07'0 0.0
2015-Aug-03 19:30N 58°40' E 017°07'0 0.0
2015-Aug-03 18:27N 58°40' E 017°07'0 0.0
2015-Aug-03 17:21N 58°40' E 017°07'0 0.0
2015-Aug-03 16:33N 58°40' E 017°07'0 0.0
2015-Aug-03 15:33N 58°40' E 017°07'0 0.0
2015-Aug-03 14:33N 58°40' E 017°07'0 0.0
2015-Aug-03 13:32N 58°40' E 017°07'4 4.4
2015-Aug-03 12:33N 58°37' E 017°13'1010.2
2015-Aug-03 11:33N 58°38' E 017°33'14 9.5
2015-Aug-03 10:04N 58°38' E 018°00'9 9.8
2015-Aug-03 09:05N 58°44' E 018°14'  
2015-Jul-28 11:32N 59°53' E 019°36'139 9.9
2015-Jul-27 21:33N 57°42' E 018°06'1110.7
2015-Jul-27 20:33N 57°33' E 017°56'1210.4
2015-Jul-27 19:25N 57°23' E 017°46'910.5
2015-Jul-27 18:31N 57°14' E 017°39'1010.5
2015-Jul-27 17:33N 57°05' E 017°32'1110.6
2015-Jul-27 16:33N 56°55' E 017°25'1111.1
2015-Jul-27 15:33N 56°44' E 017°17'7710.7
2015-Jul-27 08:20N 55°45' E 015°48'911.2
2015-Jul-27 07:33N 55°41' E 015°34'1110.6
2015-Jul-27 06:33N 55°36' E 015°18'1111.2
2015-Jul-27 05:34N 55°30' E 015°01'1111.4
2015-Jul-27 04:33N 55°24' E 014°44'1111.3
2015-Jul-27 03:33N 55°16' E 014°30'1111.3
2015-Jul-27 02:34N 55°08' E 014°17'1111.1
2015-Jul-27 01:33N 55°01' E 014°02'1111.3
2015-Jul-27 00:33N 54°57' E 013°43'5711.2
2015-Jul-26 19:24N 54°30' E 012°16'910.7
2015-Jul-26 18:33N 54°25' E 012°03'1212.0
2015-Jul-26 17:33N 54°26' E 011°42'1212.5
2015-Jul-26 16:33N 54°31' E 011°23'1312.7
2015-Jul-26 15:33N 54°37' E 011°03'1311.6
2015-Jul-26 14:27N 54°48' E 010°52'1112.3
2015-Jul-26 13:33N 54°58' E 010°59'1212.0
2015-Jul-26 12:33N 55°10' E 011°03'1211.7
2015-Jul-26 11:33N 55°22' E 011°02'8310.0
2015-Jul-26 03:15N 56°41' E 011°47'710.7
2015-Jul-26 02:34N 56°48' E 011°49'1212.0
2015-Jul-26 01:33N 56°60' E 011°41'1211.8
2015-Jul-26 00:33N 57°11' E 011°34'1211.7
2015-Jul-25 23:33N 57°22' E 011°27'1111.3
2015-Jul-25 22:33N 57°32' E 011°16'1111.0
2015-Jul-25 21:33N 57°39' E 011°01'1110.6
2015-Jul-25 20:32N 57°46' E 010°46'9 9.4
2015-Jul-25 19:33N 57°46' E 010°28'147 9.8
2015-Jul-25 04:33N 58°03' E 005°53'  

Dump ship's entire track history